Time;durP1;ratioP1;P1;durP2;ratioP2;P2;SDS_P1;SDS_P2;PMS_P1;PMS_P2;Temp;Humidity;BMP_temperature;BMP_pressure;BME280_temperature;BME280_humidity;BME280_pressure;Samples;Min_cycle;Max_cycle;Signal;HPM_P1;HPM_P2
2023/01/07 00:01:13;;;;;;;1.58;0.90;;;20.90;48.00;;;;;;5029257;28;20076;-56
2023/01/07 00:03:39;;;;;;;;;;;20.80;48.00;;;;;;5029312;28;21342;-54
2023/01/07 00:06:07;;;;;;;1.67;0.90;;;20.80;48.00;;;;;;5028220;28;19917;-59
2023/01/07 00:08:35;;;;;;;1.30;0.80;;;20.80;48.10;;;;;;5026391;28;20049;-57
2023/01/07 00:11:06;;;;;;;1.23;0.80;;;20.80;48.10;;;;;;5030996;28;20048;-56
2023/01/07 00:13:32;;;;;;;1.20;0.80;;;20.80;48.10;;;;;;5027964;28;20074;-58
2023/01/07 00:16:09;;;;;;;1.20;0.70;;;20.80;48.10;;;;;;5011708;28;20503;-58
2023/01/07 00:18:35;;;;;;;1.02;0.75;;;20.80;48.20;;;;;;5027683;28;20047;-54
2023/01/07 00:21:05;;;;;;;1.15;0.60;;;20.80;48.20;;;;;;5030652;28;20037;-56
2023/01/07 00:23:33;;;;;;;0.93;0.75;;;20.80;48.20;;;;;;5028406;28;20057;-51
2023/01/07 00:26:14;;;;;;;1.20;0.88;;;20.80;48.20;;;;;;5030113;28;20068;-57
2023/01/07 00:28:41;;;;;;;0.98;0.68;;;20.70;48.10;;;;;;5028917;28;20029;-56
2023/01/07 00:31:11;;;;;;;1.25;0.73;;;20.80;48.20;;;;;;5026242;28;20029;-58
2023/01/07 00:33:46;;;;;;;2.38;1.10;;;20.80;48.20;;;;;;5028291;28;20044;-59
2023/01/07 00:36:12;;;;;;;1.92;0.95;;;20.70;48.10;;;;;;5030037;28;20033;-58
2023/01/07 00:38:38;;;;;;;0.75;0.63;;;20.80;48.20;;;;;;5025810;28;20048;-59
2023/01/07 00:41:05;;;;;;;1.50;0.88;;;20.80;48.30;;;;;;5011362;28;20175;-59
2023/01/07 00:43:31;;;;;;;1.17;1.00;;;20.80;48.30;;;;;;5011754;28;20039;-56
2023/01/07 00:45:57;;;;;;;1.63;0.85;;;20.70;48.20;;;;;;5009817;28;20361;-58
2023/01/07 00:48:24;;;;;;;1.67;0.90;;;20.70;48.20;;;;;;5029553;28;20714;-55
2023/01/07 00:50:50;;;;;;;1.30;0.77;;;20.80;48.20;;;;;;5005210;28;20045;-56
2023/01/07 00:53:17;;;;;;;2.15;0.80;;;20.70;48.20;;;;;;5030712;28;20035;-57
2023/01/07 00:55:43;;;;;;;1.02;0.70;;;20.80;48.20;;;;;;5009734;28;20032;-57
2023/01/07 00:58:15;;;;;;;2.03;0.90;;;20.70;48.80;;;;;;5012232;28;20053;-57
2023/01/07 01:00:41;;;;;;;0.77;0.68;;;20.80;48.20;;;;;;5011709;28;20037;-53
2023/01/07 01:03:09;;;;;;;1.17;0.90;;;20.70;48.10;;;;;;5013359;28;20026;-59
2023/01/07 01:05:35;;;;;;;1.17;1.00;;;20.70;48.10;;;;;;5029038;28;20358;-55
2023/01/07 01:08:01;;;;;;;1.13;0.90;;;20.70;48.10;;;;;;5030581;28;20497;-53
2023/01/07 01:10:27;;;;;;;1.75;0.80;;;20.70;48.10;;;;;;4996018;28;20017;-57
2023/01/07 01:12:53;;;;;;;1.88;0.98;;;20.70;48.10;;;;;;5010564;28;20208;-55
2023/01/07 01:15:19;;;;;;;1.77;0.95;;;20.70;48.10;;;;;;5030332;28;20459;-58
2023/01/07 01:17:45;;;;;;;1.15;0.80;;;20.70;48.00;;;;;;5009944;28;20037;-55
2023/01/07 01:20:13;;;;;;;1.55;1.17;;;20.70;48.00;;;;;;5032385;28;20357;-58
2023/01/07 01:22:39;;;;;;;1.50;0.80;;;20.70;48.00;;;;;;5032363;28;20025;-56
2023/01/07 01:25:05;;;;;;;1.20;0.90;;;20.70;48.00;;;;;;5031971;28;20038;-57
2023/01/07 01:27:31;;;;;;;1.33;0.90;;;20.70;48.00;;;;;;5014258;28;20033;-58
2023/01/07 01:29:58;;;;;;;1.70;0.90;;;20.70;48.00;;;;;;5017270;28;20033;-60
2023/01/07 01:32:25;;;;;;;1.58;0.90;;;20.60;48.00;;;;;;5015529;28;20037;-57
2023/01/07 01:34:51;;;;;;;1.40;0.68;;;20.60;48.60;;;;;;5015665;28;20072;-56
2023/01/07 01:37:16;;;;;;;1.40;1.00;;;20.70;48.00;;;;;;5030842;28;20045;-55
2023/01/07 01:39:42;;;;;;;1.73;0.85;;;20.70;48.00;;;;;;5013849;28;20047;-58
2023/01/07 01:42:26;;;;;;;2.60;0.90;;;20.60;47.90;;;;;;5013793;28;20056;-56
2023/01/07 01:44:58;;;;;;;1.25;1.05;;;20.60;47.90;;;;;;5027767;28;20033;-56
2023/01/07 01:47:45;;;;;;;1.13;0.70;;;20.70;47.90;;;;;;5014595;28;20103;-59
2023/01/07 01:50:28;;;;;;;1.65;0.80;;;20.60;47.90;;;;;;5026375;28;20021;-56
2023/01/07 01:53:13;;;;;;;1.48;0.82;;;20.60;47.90;;;;;;5024976;28;20017;-58
2023/01/07 01:55:50;;;;;;;1.08;0.85;;;20.60;47.90;;;;;;5009320;28;20060;-59
2023/01/07 01:58:20;;;;;;;1.95;0.80;;;20.60;47.90;;;;;;5012535;28;20033;-58
2023/01/07 02:00:47;;;;;;;1.05;0.70;;;20.60;47.90;;;;;;5016460;28;20471;-54
2023/01/07 02:03:18;;;;;;;1.35;0.80;;;20.60;47.90;;;;;;5012888;28;20068;-57
2023/01/07 02:05:46;;;;;;;1.48;0.77;;;20.60;47.90;;;;;;5025904;28;20080;-57
2023/01/07 02:08:13;;;;;;;1.95;0.80;;;20.60;47.90;;;;;;5014327;28;20039;-56
2023/01/07 02:10:40;;;;;;;1.00;0.73;;;20.60;47.90;;;;;;5017193;28;20088;-60
2023/01/07 02:13:41;;;;;;;1.35;0.93;;;20.60;47.90;;;;;;5012179;28;20025;-58
2023/01/07 02:16:34;;;;;;;0.98;0.60;;;20.60;47.80;;;;;;5023063;28;20435;-56
2023/01/07 02:19:15;;;;;;;2.05;0.90;;;20.60;47.80;;;;;;5024524;28;20045;-58
2023/01/07 02:21:53;;;;;;;1.60;0.75;;;20.60;47.80;;;;;;5013893;28;20029;-53
2023/01/07 02:24:48;;;;;;;0.98;0.70;;;20.60;47.80;;;;;;5010254;28;20119;-58
2023/01/07 02:27:22;;;;;;;2.38;0.82;;;20.60;47.80;;;;;;5016279;28;20038;-58
2023/01/07 02:30:22;;;;;;;1.52;0.90;;;20.50;47.70;;;;;;5009343;28;20029;-58
2023/01/07 02:33:07;;;;;;;1.58;0.80;;;20.50;47.70;;;;;;5013722;28;20072;-57
2023/01/07 02:36:03;;;;;;;1.40;0.85;;;20.50;47.70;;;;;;5013356;28;20108;-59
2023/01/07 02:38:57;;;;;;;1.90;1.15;;;20.50;47.70;;;;;;5014892;28;20106;-55
2023/01/07 02:41:33;;;;;;;0.90;0.75;;;20.50;47.70;;;;;;5013549;28;20454;-57
2023/01/07 02:44:18;;;;;;;1.38;0.93;;;20.50;47.70;;;;;;5013301;28;20029;-57
2023/01/07 02:47:00;;;;;;;1.10;0.88;;;20.50;47.70;;;;;;5013920;28;20033;-57
2023/01/07 02:49:25;;;;;;;1.70;0.80;;;20.50;47.70;;;;;;5012256;28;20456;-55
2023/01/07 02:51:51;;;;;;;1.08;0.80;;;20.50;47.70;;;;;;5014878;28;20038;-56
2023/01/07 02:54:27;;;;;;;0.95;0.70;;;20.50;47.70;;;;;;5015391;28;20121;-55
2023/01/07 02:56:53;;;;;;;1.52;0.73;;;20.50;47.70;;;;;;5021703;28;20080;-58
2023/01/07 02:59:19;;;;;;;1.50;0.70;;;20.50;47.70;;;;;;5014133;28;20045;-55
2023/01/07 03:02:04;;;;;;;1.40;0.75;;;20.50;47.70;;;;;;5011444;28;20291;-54
2023/01/07 03:04:39;;;;;;;0.93;0.80;;;20.50;47.70;;;;;;5014365;28;20037;-56
2023/01/07 03:07:21;;;;;;;1.25;0.65;;;20.50;47.70;;;;;;5028874;28;20017;-58
2023/01/07 03:10:01;;;;;;;1.85;0.70;;;20.50;47.70;;;;;;5013801;28;20044;-59
2023/01/07 03:12:41;;;;;;;2.03;0.82;;;20.50;47.70;;;;;;5012014;28;20365;-59
2023/01/07 03:15:15;;;;;;;0.93;0.73;;;20.50;47.70;;;;;;5012310;28;20532;-58
2023/01/07 03:17:52;;;;;;;2.83;0.70;;;20.50;47.70;;;;;;5029577;28;20029;-54
2023/01/07 03:20:21;;;;;;;1.02;0.80;;;20.50;47.70;;;;;;5022492;28;20346;-58
2023/01/07 03:22:48;;;;;;;2.08;1.02;;;20.50;47.70;;;;;;5030695;28;20416;-58
2023/01/07 03:25:18;;;;;;;1.27;0.80;;;20.50;47.70;;;;;;5010021;28;20036;-57
2023/01/07 03:27:46;;;;;;;1.38;0.88;;;20.50;47.70;;;;;;5030397;28;20034;-59
2023/01/07 03:30:14;;;;;;;1.55;0.65;;;20.40;47.70;;;;;;4997204;28;20112;-58
2023/01/07 03:32:41;;;;;;;0.90;0.80;;;20.50;47.70;;;;;;5021139;28;20033;-56
2023/01/07 03:35:08;;;;;;;1.10;0.80;;;20.50;47.70;;;;;;5019190;28;20037;-56
2023/01/07 03:37:34;;;;;;;1.60;0.90;;;20.40;47.60;;;;;;5029444;28;20029;-56
2023/01/07 03:40:08;;;;;;;0.90;0.60;;;20.50;47.70;;;;;;5012782;28;20037;-54
2023/01/07 03:42:41;;;;;;;0.77;0.57;;;20.40;47.60;;;;;;5023130;28;20346;-56
2023/01/07 03:45:18;;;;;;;0.98;0.70;;;20.50;47.60;;;;;;5011725;28;20025;-57
2023/01/07 03:47:48;;;;;;;0.63;0.52;;;20.40;47.60;;;;;;5010936;28;20049;-58
2023/01/07 03:50:15;;;;;;;1.80;0.85;;;20.40;47.60;;;;;;5012728;28;20372;-59
2023/01/07 03:52:43;;;;;;;0.93;0.68;;;20.40;47.50;;;;;;5011046;28;20064;-58
2023/01/07 03:55:10;;;;;;;1.42;0.73;;;20.40;47.50;;;;;;5030654;28;20095;-58
2023/01/07 03:57:36;;;;;;;0.95;0.60;;;20.40;47.50;;;;;;5012488;28;20037;-53
2023/01/07 04:00:05;;;;;;;0.82;0.50;;;20.40;47.50;;;;;;5008967;28;20033;-58
2023/01/07 04:02:40;;;;;;;0.52;0.52;;;20.40;48.10;;;;;;5024813;28;20041;-56
2023/01/07 04:05:09;;;;;;;2.15;0.52;;;20.40;47.50;;;;;;5024142;28;20033;-57
2023/01/07 04:07:35;;;;;;;0.85;0.60;;;20.40;47.50;;;;;;5011673;28;20428;-56
2023/01/07 04:10:01;;;;;;;1.13;0.70;;;20.40;47.50;;;;;;5029705;28;20057;-57
2023/01/07 04:12:27;;;;;;;2.13;0.80;;;20.40;47.50;;;;;;5011945;28;20060;-55
2023/01/07 04:14:53;;;;;;;1.17;0.73;;;20.40;47.50;;;;;;5029740;28;20475;-58
2023/01/07 04:17:19;;;;;;;1.20;0.80;;;20.40;47.50;;;;;;5011615;28;20129;-59
2023/01/07 04:19:46;;;;;;;1.23;0.70;;;20.40;47.50;;;;;;5012816;28;20052;-59
2023/01/07 04:22:12;;;;;;;1.08;0.70;;;20.40;47.40;;;;;;5013332;28;20033;-59
2023/01/07 04:24:38;;;;;;;1.00;0.60;;;20.40;47.40;;;;;;5011310;28;20029;-58
2023/01/07 04:27:04;;;;;;;1.48;0.80;;;20.40;47.40;;;;;;5013140;28;20041;-59
2023/01/07 04:29:30;;;;;;;1.13;0.80;;;20.40;47.40;;;;;;5030108;28;20063;-58
2023/01/07 04:31:56;;;;;;;1.08;0.77;;;20.40;47.40;;;;;;5011965;28;20026;-54
2023/01/07 04:34:23;;;;;;;1.38;0.80;;;20.40;47.40;;;;;;5011151;28;20357;-59
2023/01/07 04:36:48;;;;;;;1.25;0.80;;;20.40;47.40;;;;;;5012774;28;20125;-58
2023/01/07 04:39:15;;;;;;;1.58;0.88;;;20.40;47.40;;;;;;5016077;28;20079;-56
2023/01/07 04:41:41;;;;;;;1.95;0.85;;;20.40;47.30;;;;;;5010310;28;20022;-57
2023/01/07 04:44:07;;;;;;;1.98;0.70;;;20.40;47.40;;;;;;5011341;28;20338;-58
2023/01/07 04:46:33;;;;;;;1.17;0.77;;;20.40;47.30;;;;;;5012538;28;20041;-57
2023/01/07 04:48:59;;;;;;;1.55;0.95;;;20.40;47.30;;;;;;5028335;28;20041;-56
2023/01/07 04:51:25;;;;;;;1.10;0.63;;;20.30;47.30;;;;;;5012580;28;20048;-54
2023/01/07 04:53:51;;;;;;;2.22;0.82;;;20.40;47.30;;;;;;5014347;28;20441;-53
2023/01/07 04:56:17;;;;;;;0.90;0.65;;;20.40;47.90;;;;;;5033424;28;20036;-58
2023/01/07 04:58:44;;;;;;;1.60;0.85;;;20.30;47.30;;;;;;5015845;28;20033;-57
2023/01/07 05:01:11;;;;;;;1.48;0.63;;;20.30;47.20;;;;;;5015493;28;20045;-60
2023/01/07 05:03:37;;;;;;;1.10;0.60;;;20.30;47.20;;;;;;5016525;28;20076;-56
2023/01/07 05:06:04;;;;;;;1.70;0.80;;;20.30;47.20;;;;;;5014534;28;20326;-58
2023/01/07 05:08:32;;;;;;;1.00;0.80;;;20.30;47.20;;;;;;5015392;28;20030;-56
2023/01/07 05:10:58;;;;;;;2.03;0.60;;;20.30;47.20;;;;;;5032096;28;20099;-58
2023/01/07 05:13:25;;;;;;;2.08;0.70;;;20.30;47.20;;;;;;5015020;28;20040;-58
2023/01/07 05:15:51;;;;;;;0.80;0.60;;;20.30;47.20;;;;;;5025102;28;20022;-58
2023/01/07 05:18:18;;;;;;;0.50;0.43;;;20.30;47.20;;;;;;5016459;28;20372;-55
2023/01/07 05:20:47;;;;;;;0.80;0.60;;;20.30;47.20;;;;;;5014903;28;20120;-58
2023/01/07 05:23:13;;;;;;;1.42;0.75;;;20.30;47.20;;;;;;5022870;28;20021;-57
2023/01/07 05:25:39;;;;;;;0.95;0.65;;;20.30;47.20;;;;;;5013746;28;20022;-59
2023/01/07 05:28:05;;;;;;;0.70;0.57;;;20.30;47.20;;;;;;5031352;28;20373;-58
2023/01/07 05:30:34;;;;;;;0.85;0.50;;;20.30;47.20;;;;;;5015780;28;20144;-57
2023/01/07 05:32:59;;;;;;;0.95;0.60;;;20.30;47.20;;;;;;5031782;28;20426;-55
2023/01/07 05:35:25;;;;;;;1.52;0.60;;;20.30;47.20;;;;;;5033342;28;20025;-58
2023/01/07 05:37:51;;;;;;;0.85;0.68;;;20.30;47.80;;;;;;5031235;28;20041;-59
2023/01/07 05:40:18;;;;;;;0.60;0.50;;;20.30;47.20;;;;;;5015914;28;20451;-59
2023/01/07 05:42:44;;;;;;;0.82;0.50;;;20.30;47.20;;;;;;5014024;28;20028;-55
2023/01/07 05:45:10;;;;;;;1.02;0.50;;;20.30;47.20;;;;;;5028274;28;20472;-57
2023/01/07 05:47:36;;;;;;;0.60;0.40;;;20.20;47.10;;;;;;5030927;28;20041;-58
2023/01/07 05:50:02;;;;;;;2.08;0.80;;;20.30;47.20;;;;;;5033604;28;20029;-60
2023/01/07 05:52:28;;;;;;;0.57;0.50;;;20.20;47.10;;;;;;5032393;28;20021;-58
2023/01/07 05:54:54;;;;;;;0.70;0.50;;;20.20;47.20;;;;;;5031305;28;20449;-56
2023/01/07 05:57:19;;;;;;;0.82;0.52;;;20.20;47.20;;;;;;5032504;28;20029;-59
2023/01/07 05:59:45;;;;;;;0.68;0.47;;;20.20;47.10;;;;;;5032963;28;20405;-56
2023/01/07 06:02:11;;;;;;;1.10;0.45;;;20.20;47.10;;;;;;5032449;28;20091;-56
2023/01/07 06:04:37;;;;;;;0.75;0.60;;;20.20;47.20;;;;;;5031829;28;20029;-59
2023/01/07 06:07:02;;;;;;;0.98;0.70;;;20.30;47.20;;;;;;5032523;28;20037;-60
2023/01/07 06:09:28;;;;;;;1.20;0.80;;;20.20;47.20;;;;;;5032568;28;20084;-58
2023/01/07 06:11:54;;;;;;;0.60;0.50;;;20.20;47.10;;;;;;5031665;28;20356;-57
2023/01/07 06:14:20;;;;;;;0.80;0.52;;;20.20;47.10;;;;;;5014329;28;20122;-56
2023/01/07 06:16:46;;;;;;;1.45;0.50;;;20.20;47.20;;;;;;5032058;28;20351;-58
2023/01/07 06:19:12;;;;;;;1.10;0.50;;;20.20;47.10;;;;;;5032594;28;20040;-57
2023/01/07 06:21:38;;;;;;;1.40;0.75;;;20.20;47.10;;;;;;5033358;28;20037;-59
2023/01/07 06:24:04;;;;;;;1.05;0.73;;;20.20;47.10;;;;;;5029826;28;20045;-57
2023/01/07 06:26:30;;;;;;;1.90;0.77;;;20.20;47.10;;;;;;5032484;28;20109;-57
2023/01/07 06:28:55;;;;;;;0.93;0.52;;;20.20;47.10;;;;;;5013783;28;20532;-59
2023/01/07 06:31:21;;;;;;;1.58;0.60;;;20.20;47.70;;;;;;5033317;28;20026;-56
2023/01/07 06:33:47;;;;;;;1.10;0.60;;;20.20;47.10;;;;;;5030442;28;20365;-57
2023/01/07 06:36:13;;;;;;;0.85;0.50;;;20.20;47.00;;;;;;5031742;28;20047;-58
2023/01/07 06:38:40;;;;;;;2.08;0.70;;;20.20;47.00;;;;;;5014405;28;20041;-59
2023/01/07 06:41:07;;;;;;;1.13;0.73;;;20.20;47.00;;;;;;5032860;28;20025;-57
2023/01/07 06:43:33;;;;;;;1.63;0.60;;;20.20;47.00;;;;;;5013820;28;20065;-58
2023/01/07 06:45:59;;;;;;;0.55;0.50;;;20.20;47.00;;;;;;5031590;28;20049;-59
2023/01/07 06:48:24;;;;;;;0.90;0.50;;;20.20;47.00;;;;;;5029617;28;20039;-58
2023/01/07 06:50:50;;;;;;;0.80;0.60;;;20.20;47.00;;;;;;5014838;28;20022;-59
2023/01/07 06:53:16;;;;;;;1.00;0.60;;;20.20;47.00;;;;;;5031542;28;20049;-60
2023/01/07 06:55:48;;;;;;;1.95;0.40;;;20.20;46.90;;;;;;5028965;28;20040;-58
2023/01/07 06:58:14;;;;;;;0.60;0.40;;;20.20;46.90;;;;;;5030518;28;20034;-60
2023/01/07 07:00:40;;;;;;;0.95;0.52;;;20.20;46.90;;;;;;5030718;28;20137;-57
2023/01/07 07:03:05;;;;;;;1.50;0.70;;;20.20;46.80;;;;;;5032303;28;20112;-56
2023/01/07 07:05:32;;;;;;;0.75;0.57;;;20.20;46.80;;;;;;5029727;28;20557;-58
2023/01/07 07:07:59;;;;;;;1.65;0.50;;;20.20;46.80;;;;;;5030052;28;20025;-56
2023/01/07 07:10:25;;;;;;;1.05;0.50;;;20.20;46.70;;;;;;5030951;28;20030;-58
2023/01/07 07:12:51;;;;;;;1.02;0.77;;;20.20;46.70;;;;;;5024434;28;20033;-59
2023/01/07 07:15:17;;;;;;;0.50;0.40;;;20.20;46.60;;;;;;5029628;28;20049;-57
2023/01/07 07:17:43;;;;;;;0.95;0.50;;;20.10;46.50;;;;;;5030904;28;20032;-56
2023/01/07 07:20:09;;;;;;;1.02;0.80;;;20.20;46.60;;;;;;5030678;28;20056;-54
2023/01/07 07:22:36;;;;;;;0.70;0.50;;;20.10;46.50;;;;;;5028476;28;20064;-56
2023/01/07 07:25:03;;;;;;;1.02;0.70;;;20.10;46.50;;;;;;5028905;28;20029;-56
2023/01/07 07:27:28;;;;;;;1.38;0.45;;;20.10;46.40;;;;;;5032087;28;20033;-53
2023/01/07 07:29:54;;;;;;;1.17;0.60;;;20.10;46.30;;;;;;5030022;28;20029;-57
2023/01/07 07:32:20;;;;;;;1.88;0.60;;;20.10;46.30;;;;;;5026549;28;20124;-58
2023/01/07 07:34:46;;;;;;;0.50;0.40;;;20.10;46.30;;;;;;5028773;28;20083;-58
2023/01/07 07:37:12;;;;;;;0.47;0.40;;;20.10;46.30;;;;;;5030226;28;20028;-59
2023/01/07 07:39:37;;;;;;;0.77;0.60;;;20.10;46.20;;;;;;5012813;28;20476;-57
2023/01/07 07:42:04;;;;;;;0.47;0.40;;;20.20;46.30;;;;;;5028703;28;20445;-59
2023/01/07 07:44:30;;;;;;;0.90;0.50;;;20.10;46.20;;;;;;5031847;28;20033;-54
2023/01/07 07:46:56;;;;;;;2.42;0.50;;;20.10;46.10;;;;;;5027731;28;20088;-58
2023/01/07 07:49:22;;;;;;;0.50;0.50;;;20.10;46.10;;;;;;5029926;28;20064;-58
2023/01/07 07:51:47;;;;;;;0.85;0.60;;;20.10;46.10;;;;;;5021095;28;20037;-56
2023/01/07 07:54:13;;;;;;;1.17;0.50;;;20.10;46.00;;;;;;5021938;28;20060;-56
2023/01/07 07:56:39;;;;;;;1.80;0.50;;;20.10;45.80;;;;;;5027183;28;20039;-59
2023/01/07 07:59:05;;;;;;;2.50;0.50;;;20.10;45.80;;;;;;5029064;28;20538;-59
2023/01/07 08:01:30;;;;;;;0.93;0.50;;;20.10;45.80;;;;;;5023338;28;20511;-59
2023/01/07 08:03:56;;;;;;;0.70;0.50;;;20.10;45.80;;;;;;5019913;28;20029;-55
2023/01/07 08:06:22;;;;;;;0.60;0.50;;;20.10;45.80;;;;;;5026380;28;20105;-54
2023/01/07 08:08:48;;;;;;;0.95;0.40;;;20.10;45.80;;;;;;5022726;28;20030;-53
2023/01/07 08:11:14;;;;;;;0.50;0.30;;;20.10;45.80;;;;;;5017940;28;20088;-59
2023/01/07 08:13:40;;;;;;;0.73;0.30;;;20.10;45.80;;;;;;5019384;28;20049;-55
2023/01/07 08:16:06;;;;;;;1.73;0.40;;;20.10;45.80;;;;;;5018039;28;20041;-57
2023/01/07 08:18:31;;;;;;;1.02;0.52;;;20.10;45.80;;;;;;5017704;28;20021;-54
2023/01/07 08:20:57;;;;;;;0.35;0.30;;;20.20;46.00;;;;;;5023478;28;20026;-57
2023/01/07 08:23:26;;;;;;;0.70;0.30;;;20.20;45.80;;;;;;5003683;28;20084;-57
2023/01/07 08:25:52;;;;;;;0.90;0.52;;;20.20;45.80;;;;;;5019791;28;20033;-57
2023/01/07 08:28:18;;;;;;;0.57;0.40;;;20.20;45.80;;;;;;5012648;28;20032;-55
2023/01/07 08:30:44;;;;;;;1.50;0.40;;;20.30;45.90;;;;;;5013630;28;20913;-58
2023/01/07 08:33:10;;;;;;;2.30;0.50;;;20.30;45.80;;;;;;5020335;28;20057;-60
2023/01/07 08:35:36;;;;;;;0.70;0.40;;;20.40;45.70;;;;;;5018567;28;20109;-58
2023/01/07 08:38:07;;;;;;;0.63;0.30;;;20.40;45.60;;;;;;5017608;28;20121;-57
2023/01/07 08:40:34;;;;;;;0.88;0.30;;;20.50;45.50;;;;;;5011698;28;20354;-58
2023/01/07 08:43:02;;;;;;;0.73;0.40;;;20.50;45.40;;;;;;5019081;28;20483;-59
2023/01/07 08:45:29;;;;;;;0.98;0.40;;;20.60;45.20;;;;;;5032852;28;20099;-59
2023/01/07 08:47:57;;;;;;;0.55;0.35;;;20.70;45.20;;;;;;5015089;28;20029;-57
2023/01/07 08:50:32;;;;;;;0.57;0.57;;;20.70;45.00;;;;;;5034106;28;20025;-58
2023/01/07 08:52:59;;;;;;;0.43;0.40;;;20.80;44.90;;;;;;5039687;28;20029;-55
2023/01/07 08:55:24;;;;;;;0.75;0.40;;;20.80;44.70;;;;;;5035317;28;20036;-58
2023/01/07 08:57:51;;;;;;;0.77;0.40;;;20.90;44.70;;;;;;5034110;28;20033;-59
2023/01/07 09:00:18;;;;;;;0.45;0.30;;;21.00;44.60;;;;;;5002132;28;20132;-58
2023/01/07 09:02:44;;;;;;;1.77;0.40;;;21.00;44.50;;;;;;5012613;28;20060;-61
2023/01/07 09:05:10;;;;;;;0.82;0.40;;;21.10;44.50;;;;;;5013302;28;20034;-57
2023/01/07 09:07:36;;;;;;;1.17;0.40;;;21.10;44.50;;;;;;5017018;28;20032;-59
2023/01/07 09:10:02;;;;;;;0.90;0.50;;;21.20;44.50;;;;;;5018870;28;20916;-57
2023/01/07 09:12:28;;;;;;;0.82;0.45;;;21.20;44.50;;;;;;5013809;28;20064;-57
2023/01/07 09:14:54;;;;;;;0.60;0.40;;;21.30;44.40;;;;;;5016848;28;20077;-54
2023/01/07 09:17:20;;;;;;;0.85;0.40;;;21.30;44.20;;;;;;5015946;28;20030;-57
2023/01/07 09:19:46;;;;;;;1.40;0.40;;;21.40;44.10;;;;;;5012796;28;20042;-58
2023/01/07 09:22:12;;;;;;;1.27;0.40;;;21.40;44.00;;;;;;5018618;28;20046;-58
2023/01/07 09:24:38;;;;;;;0.30;0.30;;;21.50;43.90;;;;;;5023608;28;20025;-59
2023/01/07 09:27:04;;;;;;;1.10;0.40;;;21.50;43.80;;;;;;5039152;28;20044;-59
2023/01/07 09:29:30;;;;;;;1.48;0.38;;;21.50;43.70;;;;;;5027901;28;20034;-59
2023/01/07 09:31:56;;;;;;;0.70;0.43;;;21.60;43.60;;;;;;5017710;28;20029;-55
2023/01/07 09:34:22;;;;;;;0.73;0.40;;;21.60;43.40;;;;;;5017691;28;20437;-56
2023/01/07 09:36:47;;;;;;;2.20;0.40;;;21.70;43.40;;;;;;5034585;28;20476;-56
2023/01/07 09:39:13;;;;;;;0.30;0.30;;;21.70;43.30;;;;;;5037538;28;20038;-59
2023/01/07 09:42:05;;;;;;;0.52;0.32;;;21.70;43.20;;;;;;5037656;28;20338;-56
2023/01/07 09:45:06;;;;;;;0.63;0.22;;;21.80;43.20;;;;;;5037096;28;20095;-58
2023/01/07 09:47:36;;;;;;;0.32;0.20;;;21.80;43.10;;;;;;5014900;28;20037;-59
2023/01/07 09:50:10;;;;;;;0.57;0.30;;;21.80;42.90;;;;;;5018433;28;20656;-58
2023/01/07 09:52:40;;;;;;;;;;;21.80;42.90;;;;;;5022229;28;20085;-59
2023/01/07 09:55:18;;;;;;;0.75;0.40;;;21.80;43.40;;;;;;5016664;28;19914;-60
2023/01/07 09:57:44;;;;;;;1.40;0.50;;;21.80;42.70;;;;;;5029982;28;20111;-60
2023/01/07 10:00:21;;;;;;;1.45;0.40;;;21.90;42.70;;;;;;5027163;28;20132;-56
2023/01/07 10:03:14;;;;;;;1.23;0.40;;;21.90;42.60;;;;;;5019128;28;20090;-58
2023/01/07 10:05:39;;;;;;;0.40;0.32;;;21.90;42.60;;;;;;5025102;28;20049;-51
2023/01/07 10:08:23;;;;;;;0.50;0.30;;;21.90;42.60;;;;;;5021294;28;20026;-56
2023/01/07 10:10:56;;;;;;;0.70;0.30;;;21.90;42.60;;;;;;4998948;28;20042;-56
2023/01/07 10:13:52;;;;;;;3.15;0.40;;;21.90;42.50;;;;;;5015977;28;20509;-58
2023/01/07 10:16:50;;;;;;;1.55;0.38;;;21.90;42.50;;;;;;5017313;28;20041;-59
2023/01/07 10:19:47;;;;;;;1.60;0.30;;;22.00;42.50;;;;;;5008207;28;20418;-58
2023/01/07 10:22:24;;;;;;;0.73;0.40;;;22.00;42.50;;;;;;5022162;28;20045;-56
2023/01/07 10:24:55;;;;;;;0.60;0.40;;;22.00;42.50;;;;;;5016758;28;20033;-59
2023/01/07 10:27:32;;;;;;;0.32;0.30;;;22.00;42.40;;;;;;5016150;28;20026;-56
2023/01/07 10:30:03;;;;;;;1.00;0.50;;;22.00;42.40;;;;;;5015829;28;20030;-59
2023/01/07 10:32:32;;;;;;;0.70;0.40;;;22.00;42.30;;;;;;5017924;28;20624;-59
2023/01/07 10:35:00;;;;;;;1.65;0.40;;;22.00;42.20;;;;;;5018061;28;20130;-58
2023/01/07 10:37:38;;;;;;;0.40;0.30;;;22.00;42.10;;;;;;5016768;28;20022;-59
2023/01/07 10:40:22;;;;;;;0.40;0.40;;;22.00;42.00;;;;;;5019620;28;20045;-59
2023/01/07 10:43:27;;;;;;;0.57;0.30;;;22.10;41.90;;;;;;5017579;28;20445;-59
2023/01/07 10:46:17;;;;;;;0.73;0.50;;;22.00;41.70;;;;;;5006208;28;20038;-59
2023/01/07 10:49:04;;;;;;;0.40;0.30;;;22.00;41.60;;;;;;5020152;28;20029;-57
2023/01/07 10:51:55;;;;;;;0.60;0.40;;;22.00;41.50;;;;;;5016881;28;20030;-59
2023/01/07 10:54:36;;;;;;;0.82;0.40;;;22.00;41.40;;;;;;5019513;28;20131;-58
2023/01/07 10:57:18;;;;;;;0.30;0.30;;;22.00;41.40;;;;;;5019171;28;20095;-58
2023/01/07 10:59:52;;;;;;;0.43;0.40;;;22.00;41.40;;;;;;5017473;28;20030;-55
2023/01/07 11:02:21;;;;;;;1.40;0.50;;;22.00;41.40;;;;;;5015144;28;20022;-57
2023/01/07 11:04:47;;;;;;;0.52;0.40;;;22.00;41.30;;;;;;5018880;28;20042;-59
2023/01/07 11:07:16;;;;;;;0.43;0.25;;;22.00;41.30;;;;;;5014480;28;20091;-59
2023/01/07 11:09:44;;;;;;;0.77;0.40;;;22.00;41.30;;;;;;5001670;28;20424;-58
2023/01/07 11:12:33;;;;;;;0.50;0.40;;;22.00;41.20;;;;;;5016137;28;20041;-59
2023/01/07 11:15:02;;;;;;;0.32;0.22;;;22.00;41.10;;;;;;5023813;28;20050;-55
2023/01/07 11:17:36;;;;;;;1.30;0.70;;;22.00;41.20;;;;;;5016046;28;20172;-58
2023/01/07 11:20:03;;;;;;;0.80;0.40;;;21.90;41.10;;;;;;4997238;28;20068;-56
2023/01/07 11:22:32;;;;;;;0.40;0.30;;;22.00;41.10;;;;;;5018821;28;20284;-58
2023/01/07 11:25:00;;;;;;;0.60;0.30;;;22.00;41.10;;;;;;5022766;28;20038;-56
2023/01/07 11:27:32;;;;;;;0.50;0.30;;;22.00;41.10;;;;;;5014343;28;20021;-57
2023/01/07 11:30:09;;;;;;;0.35;0.30;;;22.00;41.10;;;;;;5021679;28;20029;-59
2023/01/07 11:32:39;;;;;;;0.45;0.40;;;21.90;41.00;;;;;;5016458;28;20044;-55
2023/01/07 11:35:07;;;;;;;0.82;0.40;;;22.00;41.00;;;;;;5019244;28;20408;-56
2023/01/07 11:37:35;;;;;;;0.80;0.50;;;22.00;41.00;;;;;;5016586;28;20026;-58
2023/01/07 11:40:15;;;;;;;0.35;0.30;;;21.90;40.90;;;;;;5017270;28;20037;-55
2023/01/07 11:42:58;;;;;;;0.82;0.35;;;21.90;40.90;;;;;;5019870;28;20057;-58
2023/01/07 11:45:25;;;;;;;1.17;0.50;;;21.90;41.00;;;;;;5015344;28;20038;-53
2023/01/07 11:48:03;;;;;;;0.50;0.40;;;22.00;41.30;;;;;;5017538;28;20033;-54
2023/01/07 11:50:52;;;;;;;0.38;0.30;;;21.90;41.30;;;;;;5016321;28;20522;-53
2023/01/07 11:53:18;;;;;;;1.52;0.95;;;21.90;41.30;;;;;;5005863;28;20037;-52
2023/01/07 11:55:56;;;;;;;0.30;0.30;;;21.90;41.30;;;;;;5018591;28;20022;-52
2023/01/07 11:58:23;;;;;;;3.05;0.30;;;21.90;41.30;;;;;;5015946;28;20017;-49
2023/01/07 12:01:23;;;;;;;1.00;0.40;;;21.90;41.20;;;;;;5019562;28;20041;-55
2023/01/07 12:03:51;;;;;;;1.58;0.30;;;21.90;41.20;;;;;;4971251;28;20042;-50
2023/01/07 12:06:33;;;;;;;2.15;0.35;;;21.90;41.20;;;;;;5018664;28;20040;-51
2023/01/07 12:09:02;;;;;;;0.50;0.30;;;21.90;41.30;;;;;;5023313;28;20424;-50
2023/01/07 12:11:37;;;;;;;1.35;0.70;;;21.90;41.40;;;;;;5017165;28;20034;-54
2023/01/07 12:14:19;;;;;;;0.88;0.40;;;21.90;41.50;;;;;;5013294;28;20041;-52
2023/01/07 12:16:46;;;;;;;0.73;0.50;;;21.90;42.00;;;;;;5019042;28;20043;-53
2023/01/07 12:19:31;;;;;;;1.27;0.60;;;21.90;42.00;;;;;;5001031;28;20437;-49
2023/01/07 12:22:15;;;;;;;3.63;0.40;;;21.90;42.00;;;;;;5016491;28;20440;-50
2023/01/07 12:24:53;;;;;;;0.82;0.40;;;22.00;42.10;;;;;;5021052;28;20040;-49
2023/01/07 12:27:25;;;;;;;0.68;0.45;;;22.00;42.00;;;;;;5021690;28;20180;-50
2023/01/07 12:30:28;;;;;;;1.10;0.52;;;22.00;42.00;;;;;;5022481;28;21872;-53
2023/01/07 12:33:04;;;;;;;0.50;0.40;;;22.00;42.00;;;;;;5029448;28;20528;-54
2023/01/07 12:35:37;;;;;;;1.42;0.57;;;22.00;42.00;;;;;;5042383;28;20033;-50
2023/01/07 12:38:15;;;;;;;7.75;0.55;;;22.00;42.00;;;;;;5032265;28;20022;-54
2023/01/07 12:41:04;;;;;;;1.27;0.50;;;22.00;42.00;;;;;;5023993;28;20055;-50
2023/01/07 12:43:39;;;;;;;0.50;0.30;;;22.00;42.00;;;;;;5024993;28;20056;-50
2023/01/07 12:46:10;;;;;;;0.95;0.40;;;22.00;42.00;;;;;;5014418;28;20510;-53
2023/01/07 12:49:20;;;;;;;0.85;0.40;;;22.00;42.00;;;;;;5017290;28;21620;-52
2023/01/07 12:52:01;;;;;;;2.50;0.50;;;22.00;42.00;;;;;;4958860;28;20041;-54
2023/01/07 12:54:46;;;;;;;1.25;0.60;;;22.00;42.00;;;;;;5021111;28;20037;-50
2023/01/07 12:57:20;;;;;;;0.25;0.25;;;22.00;42.00;;;;;;5019510;28;21596;-50
2023/01/07 13:00:07;;;;;;;2.13;0.40;;;22.00;42.00;;;;;;5019892;28;20056;-52
2023/01/07 13:02:47;;;;;;;0.70;0.43;;;22.00;42.00;;;;;;5022454;28;20038;-54
2023/01/07 13:05:36;;;;;;;1.52;0.68;;;22.00;41.90;;;;;;5020959;28;20033;-52
2023/01/07 13:08:13;;;;;;;1.95;0.60;;;22.00;41.90;;;;;;5024117;28;20357;-50